Time;durP1;ratioP1;P1;durP2;ratioP2;P2;SDS_P1;SDS_P2;PMS_P1;PMS_P2;Temp;Humidity;BMP_temperature;BMP_pressure;BME280_temperature;BME280_humidity;BME280_pressure;Samples;Min_cycle;Max_cycle;Signal;HPM_P1;HPM_P2
2023/03/01 00:02:17;;;;;;;;;;;;;;;21.91;26.78;98758.44;5057036;28;920;-81
2023/03/01 00:04:42;;;;;;;;;;;;;;;21.90;26.58;98748.34;5057269;28;921;-81
2023/03/01 00:07:08;;;;;;;;;;;;;;;21.98;27.04;98755.50;5056599;28;1232;-81
2023/03/01 00:09:35;;;;;;;;;;;;;;;22.09;26.96;98765.44;5040563;28;1063;-81
2023/03/01 00:12:01;;;;;;;;;;;;;;;22.22;26.68;98768.47;5056994;28;873;-81
2023/03/01 00:14:26;;;;;;;;;;;;;;;21.81;26.97;98754.53;5056960;28;992;-81
2023/03/01 00:16:52;;;;;;;;;;;;;;;21.70;26.87;98760.38;5053665;28;1983;-81
2023/03/01 00:19:18;;;;;;;;;;;;;;;21.68;27.09;98753.53;5024238;28;1048;-81
2023/03/01 00:21:43;;;;;;;;;;;;;;;21.63;28.10;98749.16;5017670;28;1118;-81
2023/03/01 00:24:09;;;;;;;;;;;;;;;22.19;26.83;98760.84;4985116;28;1247;-81
2023/03/01 00:26:35;;;;;;;;;;;;;;;22.25;26.32;98759.13;5017498;28;984;-81
2023/03/01 00:29:00;;;;;;;;;;;;;;;21.72;27.26;98752.28;5017807;28;975;-82
2023/03/01 00:31:27;;;;;;;;;;;;;;;21.85;26.84;98767.44;5032612;28;997;-81
2023/03/01 00:33:56;;;;;;;;;;;;;;;21.63;26.88;98763.31;5020665;28;779;-81
2023/03/01 00:36:22;;;;;;;;;;;;;;;21.87;26.97;98754.88;5037646;28;1979;-81
2023/03/01 00:38:48;;;;;;;;;;;;;;;22.15;26.89;98745.94;5037515;28;1196;-80
2023/03/01 00:41:14;;;;;;;;;;;;;;;21.94;26.85;98746.25;5036938;28;1054;-81
2023/03/01 00:43:40;;;;;;;;;;;;;;;21.73;27.04;98745.38;5036917;28;1263;-80
2023/03/01 00:46:09;;;;;;;;;;;;;;;21.81;26.67;98732.72;5021034;28;815;-81
2023/03/01 00:48:34;;;;;;;;;;;;;;;21.74;26.99;98738.47;5040215;28;852;-81
2023/03/01 00:51:06;;;;;;;;;;;;;;;21.88;27.22;98736.66;5041163;28;876;-81
2023/03/01 00:53:32;;;;;;;;;;;;;;;22.05;26.69;98729.88;5054948;28;1221;-81
2023/03/01 00:55:58;;;;;;;;;;;;;;;21.97;26.70;98737.72;5078348;28;1965;-81
2023/03/01 00:58:23;;;;;;;;;;;;;;;22.25;26.33;98732.81;5061877;28;1180;-81
2023/03/01 01:00:49;;;;;;;;;;;;;;;21.84;26.77;98726.16;5061575;28;1136;-81
2023/03/01 01:03:15;;;;;;;;;;;;;;;21.82;26.71;98722.16;5059747;28;1146;-81
2023/03/01 01:05:41;;;;;;;;;;;;;;;21.50;27.36;98711.31;5060269;28;868;-81
2023/03/01 01:08:06;;;;;;;;;;;;;;;21.69;27.39;98721.94;5059555;28;1052;-82
2023/03/01 01:10:33;;;;;;;;;;;;;;;22.12;26.45;98712.78;5060219;28;845;-81
2023/03/01 01:12:59;;;;;;;;;;;;;;;22.24;26.42;98720.66;5043178;28;1262;-81
2023/03/01 01:15:24;;;;;;;;;;;;;;;21.73;26.92;98714.22;5043146;28;1150;-81
2023/03/01 01:17:50;;;;;;;;;;;;;;;21.89;26.85;98718.41;5059910;28;1983;-81
2023/03/01 01:20:17;;;;;;;;;;;;;;;21.69;27.05;98707.78;5059870;28;805;-81
2023/03/01 01:22:42;;;;;;;;;;;;;;;21.82;27.18;98705.97;5043162;28;1293;-81
2023/03/01 01:25:10;;;;;;;;;;;;;;;22.27;26.15;98713.31;5043893;28;1134;-81
2023/03/01 01:27:36;;;;;;;;;;;;;;;22.42;25.96;98711.03;5042644;28;887;-80
2023/03/01 01:30:01;;;;;;;;;;;;;;;21.90;26.60;98705.84;5042983;28;1348;-81
2023/03/01 01:32:27;;;;;;;;;;;;;;;21.74;26.53;98706.50;5076385;28;976;-81
2023/03/01 01:34:53;;;;;;;;;;;;;;;21.83;27.10;98718.91;5055950;28;1224;-82
2023/03/01 01:37:19;;;;;;;;;;;;;;;22.09;26.60;98713.63;5077585;28;1967;-81
2023/03/01 01:39:44;;;;;;;;;;;;;;;22.02;26.74;98708.06;5060794;28;1248;-81
2023/03/01 01:42:17;;;;;;;;;;;;;;;21.79;26.56;98701.16;5077188;28;885;-81
2023/03/01 01:44:42;;;;;;;;;;;;;;;21.73;26.70;98714.22;5077133;28;888;-81
2023/03/01 01:47:12;;;;;;;;;;;;;;;21.66;26.87;98708.66;5060353;28;828;-81
2023/03/01 01:49:41;;;;;;;;;;;;;;;21.92;26.65;98709.06;5060973;28;1105;-81
2023/03/01 01:52:11;;;;;;;;;;;;;;;22.12;26.17;98707.09;5077378;28;824;-81
2023/03/01 01:54:41;;;;;;;;;;;;;;;22.08;26.24;98700.69;5076831;28;951;-81
2023/03/01 01:57:08;;;;;;;;;;;;;;;21.77;26.59;98703.63;5076640;28;1989;-81
2023/03/01 01:59:34;;;;;;;;;;;;;;;21.39;26.99;98688.03;5060474;28;1170;-80
2023/03/01 02:02:00;;;;;;;;;;;;;;;21.69;26.47;98707.78;5077132;28;847;-81
2023/03/01 02:04:25;;;;;;;;;;;;;;;21.84;26.82;98695.00;5076853;28;854;-81
2023/03/01 02:07:11;;;;;;;;;;;;;;;22.10;26.22;98692.53;5058411;28;1081;-82
2023/03/01 02:09:37;;;;;;;;;;;;;;;21.99;26.30;98697.59;4980084;28;1228;-81
2023/03/01 02:12:02;;;;;;;;;;;;;;;21.81;26.80;98693.03;4963740;28;1055;-81
2023/03/01 02:14:28;;;;;;;;;;;;;;;21.84;26.33;98691.38;4980176;28;994;-81
2023/03/01 02:16:53;;;;;;;;;;;;;;;21.84;26.37;98689.34;4963799;28;1994;-81
2023/03/01 02:19:29;;;;;;;;;;;;;;;21.94;26.60;98693.22;4963633;28;900;-81
2023/03/01 02:21:57;;;;;;;;;;;;;;;22.12;26.37;98694.97;4980009;28;956;-81
2023/03/01 02:24:30;;;;;;;;;;;;;;;21.74;26.79;98673.31;4979821;28;1331;-81
2023/03/01 02:26:55;;;;;;;;;;;;;;;21.80;26.51;98684.97;4979501;28;905;-81
2023/03/01 02:29:21;;;;;;;;;;;;;;;21.68;26.69;98694.88;4947692;28;1124;-81
2023/03/01 02:31:47;;;;;;;;;;;;;;;21.70;27.07;98698.06;4957301;28;1124;-81
2023/03/01 02:34:14;;;;;;;;;;;;;;;22.24;26.33;98705.69;4940886;29;1406;-81
2023/03/01 02:36:47;;;;;;;;;;;;;;;22.41;25.90;98700.94;4940742;29;1984;-81
2023/03/01 02:39:16;;;;;;;;;;;;;;;21.91;26.58;98705.41;4956744;28;972;-81
2023/03/01 02:41:45;;;;;;;;;;;;;;;21.64;26.77;98696.94;4940551;28;1156;-81
2023/03/01 02:44:10;;;;;;;;;;;;;;;21.42;27.26;98696.47;4956863;28;1036;-82
2023/03/01 02:46:41;;;;;;;;;;;;;;;21.88;26.65;98702.66;4987082;28;1166;-81
2023/03/01 02:49:23;;;;;;;;;;;;;;;22.16;26.39;98718.38;5014958;28;962;-81
2023/03/01 02:51:54;;;;;;;;;;;;;;;22.00;26.15;98716.19;4998547;28;899;-81
2023/03/01 02:54:26;;;;;;;;;;;;;;;21.87;26.42;98715.22;5015149;28;1321;-81
2023/03/01 02:56:52;;;;;;;;;;;;;;;21.45;26.81;98714.63;4998346;28;1942;-82
2023/03/01 02:59:20;;;;;;;;;;;;;;;21.91;26.71;98715.94;4982611;28;1100;-81
2023/03/01 03:01:47;;;;;;;;;;;;;;;22.06;26.28;98706.75;4988286;28;1336;-81
2023/03/01 03:04:16;;;;;;;;;;;;;;;22.19;26.11;98721.16;5041368;28;1158;-81
2023/03/01 03:06:44;;;;;;;;;;;;;;;21.82;26.57;98716.50;5041303;28;1197;-81
2023/03/01 03:09:10;;;;;;;;;;;;;;;21.67;26.66;98721.59;5057665;28;1296;-81
2023/03/01 03:11:36;;;;;;;;;;;;;;;21.56;26.56;98713.25;5057707;28;1263;-81
2023/03/01 03:14:02;;;;;;;;;;;;;;;22.00;26.38;98713.38;5041178;28;1118;-82
2023/03/01 03:16:29;;;;;;;;;;;;;;;22.12;26.35;98717.63;5057837;28;1922;-82
2023/03/01 03:19:04;;;;;;;;;;;;;;;22.19;26.03;98723.19;5041233;28;1067;-82
2023/03/01 03:21:33;;;;;;;;;;;;;;;21.75;26.56;98716.59;5059255;28;962;-82
2023/03/01 03:23:59;;;;;;;;;;;;;;;21.69;26.27;98719.13;5057606;28;845;-81
2023/03/01 03:26:25;;;;;;;;;;;;;;;21.65;26.20;98721.19;5064447;28;1078;-81
2023/03/01 03:28:50;;;;;;;;;;;;;;;21.93;26.54;98710.66;5075433;28;1247;-81
2023/03/01 03:31:16;;;;;;;;;;;;;;;22.27;25.89;98714.13;5057635;28;1437;-81
2023/03/01 03:33:41;;;;;;;;;;;;;;;22.27;26.09;98711.28;5075108;28;849;-81
2023/03/01 03:36:12;;;;;;;;;;;;;;;21.85;26.37;98721.28;5075876;28;2003;-81
2023/03/01 03:38:38;;;;;;;;;;;;;;;21.66;26.55;98725.66;5058476;28;1122;-81
2023/03/01 03:41:05;;;;;;;;;;;;;;;21.77;26.51;98714.97;5075374;28;875;-82
2023/03/01 03:43:31;;;;;;;;;;;;;;;21.90;26.58;98705.84;5074834;28;836;-82
2023/03/01 03:45:57;;;;;;;;;;;;;;;22.37;25.95;98706.66;5058352;28;901;-81
2023/03/01 03:48:22;;;;;;;;;;;;;;;21.89;26.26;98692.91;5075354;28;778;-82
2023/03/01 03:50:49;;;;;;;;;;;;;;;21.91;26.23;98685.56;5041463;28;1125;-81
2023/03/01 03:53:15;;;;;;;;;;;;;;;21.71;26.47;98682.69;5056655;28;971;-81
2023/03/01 03:55:40;;;;;;;;;;;;;;;21.73;26.67;98691.53;5057194;28;887;-81
2023/03/01 03:58:09;;;;;;;;;;;;;;;22.08;26.31;98689.34;5056697;28;1963;-81
2023/03/01 04:00:41;;;;;;;;;;;;;;;22.32;25.75;98688.09;5040399;28;1266;-81
2023/03/01 04:03:07;;;;;;;;;;;;;;;22.28;26.01;98673.22;5056819;28;1057;-82
2023/03/01 04:05:32;;;;;;;;;;;;;;;21.99;26.29;98674.94;5057538;28;1110;-81
2023/03/01 04:08:06;;;;;;;;;;;;;;;21.88;26.27;98671.50;5040006;28;1120;-82
2023/03/01 04:10:52;;;;;;;;;;;;;;;21.59;26.64;98669.91;5041461;28;736;-82
2023/03/01 04:13:19;;;;;;;;;;;;;;;22.07;26.25;98667.88;5073461;28;1040;-81
2023/03/01 04:15:53;;;;;;;;;;;;;;;22.13;26.32;98669.03;5040560;28;969;-82
2023/03/01 04:18:20;;;;;;;;;;;;;;;21.79;26.50;98660.69;5056799;28;1902;-81
2023/03/01 04:20:45;;;;;;;;;;;;;;;21.72;26.64;98655.97;5056908;28;889;-81
2023/03/01 04:23:15;;;;;;;;;;;;;;;21.67;26.41;98664.94;5073579;28;952;-81
2023/03/01 04:25:42;;;;;;;;;;;;;;;21.54;26.84;98659.06;5056882;28;905;-81
2023/03/01 04:28:08;;;;;;;;;;;;;;;21.83;26.69;98667.91;5040294;28;1122;-82
2023/03/01 04:30:35;;;;;;;;;;;;;;;22.10;26.20;98664.19;5040348;28;1227;-82
2023/03/01 04:33:04;;;;;;;;;;;;;;;21.82;26.53;98671.97;5040060;28;1087;-82
2023/03/01 04:35:30;;;;;;;;;;;;;;;21.92;26.34;98681.53;5073271;28;956;-82
2023/03/01 04:37:56;;;;;;;;;;;;;;;21.72;26.64;98689.16;5040126;28;1914;-82
2023/03/01 04:40:22;;;;;;;;;;;;;;;21.96;26.45;98692.78;5040029;28;1226;-82
2023/03/01 04:42:47;;;;;;;;;;;;;;;22.23;25.93;98696.41;5073036;28;920;-82
2023/03/01 04:45:13;;;;;;;;;;;;;;;22.08;26.12;98695.81;5073261;28;1004;-82
2023/03/01 04:47:39;;;;;;;;;;;;;;;21.82;26.54;98677.66;5056691;28;1095;-83
2023/03/01 04:50:05;;;;;;;;;;;;;;;21.73;26.66;98673.75;5036551;28;960;-83
2023/03/01 04:52:31;;;;;;;;;;;;;;;21.76;26.45;98679.38;5053584;28;1012;-83
2023/03/01 04:54:57;;;;;;;;;;;;;;;22.23;26.20;98681.44;5036794;28;834;-83
2023/03/01 04:57:22;;;;;;;;;;;;;;;22.41;25.79;98678.25;5003560;28;1910;-83
2023/03/01 04:59:48;;;;;;;;;;;;;;;22.50;25.85;98676.44;5036478;28;1221;-83
2023/03/01 05:02:13;;;;;;;;;;;;;;;21.81;26.34;98670.38;5020773;28;1199;-83
2023/03/01 05:04:39;;;;;;;;;;;;;;;21.62;26.69;98679.59;5056168;28;822;-83
2023/03/01 05:07:05;;;;;;;;;;;;;;;21.67;26.86;98679.09;5023504;28;1318;-83
2023/03/01 05:09:30;;;;;;;;;;;;;;;22.07;26.20;98676.38;5040419;28;961;-82
2023/03/01 05:11:56;;;;;;;;;;;;;;;22.29;25.92;98683.31;5023376;28;941;-83
2023/03/01 05:14:22;;;;;;;;;;;;;;;21.79;26.45;98683.34;5023443;28;1029;-82
2023/03/01 05:16:48;;;;;;;;;;;;;;;21.59;26.66;98680.44;5040127;28;1980;-82
2023/03/01 05:19:16;;;;;;;;;;;;;;;21.59;26.51;98680.44;5023358;28;901;-83
2023/03/01 05:24:28;;;;;;;;;;;;;;;22.29;25.95;98683.31;5045713;28;1233;-83
2023/03/01 05:26:54;;;;;;;;;;;;;;;22.28;25.76;98669.59;5026920;28;1107;-83
2023/03/01 05:29:24;;;;;;;;;;;;;;;21.79;26.22;98667.16;5076210;28;983;-83
2023/03/01 05:31:53;;;;;;;;;;;;;;;21.89;26.13;98671.03;5060145;28;1215;-83
2023/03/01 05:34:22;;;;;;;;;;;;;;;21.63;26.48;98672.69;5077394;28;1133;-83
2023/03/01 05:36:48;;;;;;;;;;;;;;;22.10;26.11;98676.38;5060476;28;1898;-79
2023/03/01 05:39:13;;;;;;;;;;;;;;;22.24;26.07;98680.97;5077116;28;907;-80
2023/03/01 05:41:40;;;;;;;;;;;;;;;21.92;26.12;98675.06;5077603;28;936;-80
2023/03/01 05:44:06;;;;;;;;;;;;;;;21.59;26.52;98680.44;5096233;28;915;-80
2023/03/01 05:46:31;;;;;;;;;;;;;;;21.63;26.51;98675.53;5062630;28;1114;-80
2023/03/01 05:48:57;;;;;;;;;;;;;;;21.92;26.59;98683.56;5079114;28;1212;-80
2023/03/01 05:51:23;;;;;;;;;;;;;;;22.23;25.89;98679.41;5079310;28;916;-80
2023/03/01 05:53:48;;;;;;;;;;;;;;;22.32;26.05;98679.59;5079167;28;1145;-80
2023/03/01 05:56:14;;;;;;;;;;;;;;;21.79;26.48;98684.16;5039182;28;1906;-79
2023/03/01 05:58:39;;;;;;;;;;;;;;;21.82;26.40;98677.66;5055613;28;950;-80
2023/03/01 06:01:05;;;;;;;;;;;;;;;21.78;26.24;98671.22;5055704;28;883;-80
2023/03/01 06:03:30;;;;;;;;;;;;;;;22.00;26.36;98682.19;5039620;28;942;-80
2023/03/01 06:05:56;;;;;;;;;;;;;;;22.02;26.38;98682.56;5038861;28;1002;-80
2023/03/01 06:08:24;;;;;;;;;;;;;;;22.21;25.98;98684.69;5038991;28;1027;-80
2023/03/01 06:10:49;;;;;;;;;;;;;;;22.02;25.91;98674.06;5022726;28;906;-80
2023/03/01 06:13:15;;;;;;;;;;;;;;;21.67;26.38;98690.44;5038936;28;1127;-80
2023/03/01 06:15:41;;;;;;;;;;;;;;;21.81;26.69;98681.72;5021120;28;1079;-80
2023/03/01 06:18:06;;;;;;;;;;;;;;;22.42;25.53;98679.84;5038708;28;1910;-80
2023/03/01 06:20:32;;;;;;;;;;;;;;;22.51;25.35;98689.38;5055271;28;942;-80
2023/03/01 06:22:57;;;;;;;;;;;;;;;21.95;26.16;98682.69;5038552;28;979;-80
2023/03/01 06:25:24;;;;;;;;;;;;;;;21.85;26.12;98692.97;5021989;28;964;-80
2023/03/01 06:27:50;;;;;;;;;;;;;;;21.43;26.62;98683.91;5022492;28;900;-80
2023/03/01 06:30:16;;;;;;;;;;;;;;;22.31;25.78;98685.72;5022463;28;1215;-81
2023/03/01 06:32:42;;;;;;;;;;;;;;;22.33;25.84;98678.41;5024813;28;1185;-80
2023/03/01 06:35:08;;;;;;;;;;;;;;;22.33;25.64;98678.41;5059757;28;948;-80
2023/03/01 06:37:35;;;;;;;;;;;;;;;22.06;25.76;98677.63;5059983;28;1910;-80
2023/03/01 06:40:04;;;;;;;;;;;;;;;21.80;26.00;98674.41;5059888;28;720;-80
2023/03/01 06:42:30;;;;;;;;;;;;;;;21.85;25.94;98675.97;5076076;28;911;-80
2023/03/01 06:44:55;;;;;;;;;;;;;;;22.04;26.17;98671.59;5076067;28;934;-80
2023/03/01 06:47:21;;;;;;;;;;;;;;;22.31;26.05;98680.84;5075737;28;859;-80
2023/03/01 06:49:46;;;;;;;;;;;;;;;22.06;26.01;98680.47;5077134;28;1196;-80
2023/03/01 06:52:12;;;;;;;;;;;;;;;21.58;26.71;98681.69;5059360;28;1173;-80
2023/03/01 06:54:37;;;;;;;;;;;;;;;21.41;26.83;98677.09;5059427;28;1090;-80
2023/03/01 06:57:03;;;;;;;;;;;;;;;21.65;26.67;98675.09;5075525;28;1987;-80
2023/03/01 06:59:29;;;;;;;;;;;;;;;21.91;26.41;98673.44;5075863;28;794;-80
2023/03/01 07:01:54;;;;;;;;;;;;;;;22.07;26.01;98680.06;5075577;28;951;-79
2023/03/01 07:04:20;;;;;;;;;;;;;;;21.75;26.52;98683.41;5057582;28;1051;-80
2023/03/01 07:06:45;;;;;;;;;;;;;;;21.65;26.49;98683.59;5057994;28;1210;-80
2023/03/01 07:09:11;;;;;;;;;;;;;;;21.63;26.41;98689.69;5074215;28;924;-80
2023/03/01 07:11:37;;;;;;;;;;;;;;;21.95;26.25;98680.66;5037384;28;1126;-80
2023/03/01 07:14:03;;;;;;;;;;;;;;;22.00;26.04;98683.00;5037763;28;1261;-80
2023/03/01 07:16:28;;;;;;;;;;;;;;;21.96;26.00;98676.59;5037764;28;1981;-80
2023/03/01 07:18:54;;;;;;;;;;;;;;;21.66;26.62;98680.34;5021409;28;910;-79
2023/03/01 07:21:19;;;;;;;;;;;;;;;21.74;26.10;98683.84;5037603;28;1115;-80
2023/03/01 07:23:47;;;;;;;;;;;;;;;21.70;26.62;98689.56;5037695;28;789;-80
2023/03/01 07:26:12;;;;;;;;;;;;;;;22.00;26.28;98700.00;5037291;28;895;-79
2023/03/01 07:28:39;;;;;;;;;;;;;;;21.99;26.04;98694.78;5037214;28;888;-79
2023/03/01 07:31:07;;;;;;;;;;;;;;;21.80;26.09;98685.75;5054211;28;779;-80
2023/03/01 07:33:33;;;;;;;;;;;;;;;21.69;26.26;98704.16;5037626;28;767;-79
2023/03/01 07:35:59;;;;;;;;;;;;;;;21.64;26.22;98699.78;5057566;28;1328;-79
2023/03/01 07:38:25;;;;;;;;;;;;;;;21.95;26.33;98702.53;5014092;28;1977;-80
2023/03/01 07:40:50;;;;;;;;;;;;;;;21.96;26.19;98693.59;4998258;28;1026;-80
2023/03/01 07:43:16;;;;;;;;;;;;;;;22.24;25.86;98689.50;4998180;28;929;-80
2023/03/01 07:45:41;;;;;;;;;;;;;;;22.17;25.79;98686.75;4997918;28;949;-79
2023/03/01 07:48:07;;;;;;;;;;;;;;;21.93;25.96;98682.34;5016196;28;939;-79
2023/03/01 07:50:32;;;;;;;;;;;;;;;21.71;26.51;98685.53;5017466;28;1294;-79
2023/03/01 07:52:58;;;;;;;;;;;;;;;21.54;26.47;98678.09;5034310;28;848;-80
2023/03/01 07:55:24;;;;;;;;;;;;;;;21.68;26.40;98677.88;5034045;28;890;-80
2023/03/01 07:57:49;;;;;;;;;;;;;;;22.08;26.05;98669.50;5000939;28;1910;-79
2023/03/01 08:00:15;;;;;;;;;;;;;;;22.17;25.73;98675.44;5017436;28;925;-80
2023/03/01 08:02:41;;;;;;;;;;;;;;;21.85;26.16;98682.44;5017174;28;989;-79
2023/03/01 08:05:08;;;;;;;;;;;;;;;21.58;26.59;98684.50;5017241;28;901;-79
2023/03/01 08:07:33;;;;;;;;;;;;;;;21.79;26.49;98684.16;5017118;28;1197;-80
2023/03/01 08:09:59;;;;;;;;;;;;;;;21.91;26.61;98681.94;5016940;28;907;-80
2023/03/01 08:12:24;;;;;;;;;;;;;;;22.10;26.15;98673.53;4976308;28;1205;-80
2023/03/01 08:14:50;;;;;;;;;;;;;;;22.16;25.90;98679.50;4978223;28;1100;-80
2023/03/01 08:17:16;;;;;;;;;;;;;;;21.77;26.05;98680.97;5014051;28;1910;-80
2023/03/01 08:19:42;;;;;;;;;;;;;;;21.60;26.38;98687.69;5013657;28;1037;-80
2023/03/01 08:22:07;;;;;;;;;;;;;;;21.46;26.77;98682.28;4997743;28;1120;-80
2023/03/01 08:24:33;;;;;;;;;;;;;;;22.09;26.28;98673.94;5013964;28;1241;-80
2023/03/01 08:26:59;;;;;;;;;;;;;;;22.22;25.81;98682.63;5013781;28;900;-80
2023/03/01 08:29:24;;;;;;;;;;;;;;;21.88;25.99;98682.81;5013511;28;899;-79
2023/03/01 08:31:50;;;;;;;;;;;;;;;21.93;25.86;98676.66;4996802;28;1130;-79
2023/03/01 08:34:15;;;;;;;;;;;;;;;21.49;26.33;98687.06;4996260;28;945;-80
2023/03/01 08:36:42;;;;;;;;;;;;;;;21.61;26.61;98683.66;4996938;28;1899;-79
2023/03/01 08:39:08;;;;;;;;;;;;;;;22.16;25.79;98687.22;4999070;28;1423;-80
2023/03/01 08:41:33;;;;;;;;;;;;;;;22.24;25.62;98680.97;5000136;28;1001;-80
2023/03/01 08:43:59;;;;;;;;;;;;;;;21.89;26.08;98678.75;5000515;28;1075;-82
2023/03/01 08:46:26;;;;;;;;;;;;;;;21.88;25.94;98682.81;4985118;28;1317;-81
2023/03/01 08:48:51;;;;;;;;;;;;;;;21.66;26.59;98679.53;4990492;28;855;-81
2023/03/01 08:51:17;;;;;;;;;;;;;;;22.04;25.86;98682.94;5077498;28;971;-81
2023/03/01 08:53:43;;;;;;;;;;;;;;;21.97;26.01;98689.53;5060322;28;889;-81
2023/03/01 08:56:09;;;;;;;;;;;;;;;22.19;25.96;98687.16;5076873;28;1011;-82
2023/03/01 08:58:34;;;;;;;;;;;;;;;22.01;25.96;98672.47;5076570;28;1985;-82
2023/03/01 09:01:00;;;;;;;;;;;;;;;21.88;25.85;98668.66;5059842;28;771;-82
2023/03/01 09:03:26;;;;;;;;;;;;;;;21.66;26.13;98668.19;5039771;28;1495;-81
2023/03/01 09:05:52;;;;;;;;;;;;;;;22.03;26.09;98672.84;5023512;28;942;-81
2023/03/01 09:08:18;;;;;;;;;;;;;;;22.21;25.82;98678.22;5022945;28;1069;-81
2023/03/01 09:10:43;;;;;;;;;;;;;;;22.15;25.72;98675.06;5039756;28;896;-80
2023/03/01 09:13:09;;;;;;;;;;;;;;;21.90;25.92;98677.50;5040157;28;930;-81
2023/03/01 09:15:36;;;;;;;;;;;;;;;21.95;25.69;98674.19;5023101;28;1284;-80
2023/03/01 09:18:02;;;;;;;;;;;;;;;21.77;25.98;98680.16;5023269;28;1906;-81
2023/03/01 09:20:27;;;;;;;;;;;;;;;22.02;26.33;98674.06;5056430;28;1001;-81
2023/03/01 09:22:53;;;;;;;;;;;;;;;22.41;25.64;98669.75;5023417;28;902;-81
2023/03/01 09:25:18;;;;;;;;;;;;;;;22.27;25.39;98682.94;5039159;28;798;-82
2023/03/01 09:27:44;;;;;;;;;;;;;;;21.90;26.01;98674.69;5006649;28;1198;-82
2023/03/01 09:30:10;;;;;;;;;;;;;;;21.75;26.13;98683.41;5039444;28;857;-81
2023/03/01 09:32:35;;;;;;;;;;;;;;;21.40;26.96;98683.97;5039169;28;968;-82
2023/03/01 09:35:03;;;;;;;;;;;;;;;22.18;25.92;98688.38;5066959;28;1064;-81
2023/03/01 09:37:29;;;;;;;;;;;;;;;22.28;25.49;98681.72;5077138;28;1913;-81
2023/03/01 09:39:54;;;;;;;;;;;;;;;22.00;25.72;98687.88;5060696;28;1129;-81
2023/03/01 09:42:20;;;;;;;;;;;;;;;21.62;26.55;98679.59;5078315;28;848;-82
2023/03/01 09:44:53;;;;;;;;;;;;;;;21.62;26.47;98687.28;5059677;28;691;-81
2023/03/01 09:47:20;;;;;;;;;;;;;;;21.85;26.41;98671.09;5059663;28;963;-81
2023/03/01 09:49:49;;;;;;;;;;;;;;;21.99;26.02;98669.25;5076139;28;844;-81
2023/03/01 09:52:26;;;;;;;;;;;;;;;22.27;25.81;98663.09;5077209;28;916;-81
2023/03/01 09:54:54;;;;;;;;;;;;;;;21.81;26.28;98663.88;5078480;28;907;-81
2023/03/01 09:57:19;;;;;;;;;;;;;;;21.54;26.33;98666.75;5060590;28;1973;-81
2023/03/01 09:59:51;;;;;;;;;;;;;;;21.69;26.14;98667.34;5077100;28;1236;-81
2023/03/01 10:02:27;;;;;;;;;;;;;;;22.05;25.93;98664.69;5077554;28;922;-81
2023/03/01 10:05:16;;;;;;;;;;;;;;;22.50;25.19;98658.63;5043588;28;1327;-81
2023/03/01 10:07:58;;;;;;;;;;;;;;;22.01;25.81;98661.13;5054928;28;1207;-81
2023/03/01 10:10:26;;;;;;;;;;;;;;;21.66;26.28;98657.69;5038796;28;961;-81
2023/03/01 10:12:52;;;;;;;;;;;;;;;21.38;26.75;98652.47;5022197;28;1073;-82
2023/03/01 10:15:38;;;;;;;;;;;;;;;22.14;25.76;98645.13;5038505;28;812;-82
2023/03/01 10:18:09;;;;;;;;;;;;;;;22.29;25.44;98654.97;5036337;28;1969;-82
2023/03/01 10:20:53;;;;;;;;;;;;;;;21.77;26.29;98651.84;5022568;28;862;-82
2023/03/01 10:23:19;;;;;;;;;;;;;;;21.35;26.81;98651.31;5054830;28;1578;-82
2023/03/01 10:25:47;;;;;;;;;;;;;;;21.65;26.50;98638.28;5055040;28;931;-82
2023/03/01 10:28:31;;;;;;;;;;;;;;;21.95;26.04;98638.16;5038491;28;905;-81
2023/03/01 10:30:57;;;;;;;;;;;;;;;22.11;25.85;98631.81;5038538;28;888;-81
2023/03/01 10:33:32;;;;;;;;;;;;;;;21.76;26.17;98628.38;5038405;28;970;-82
2023/03/01 10:35:58;;;;;;;;;;;;;;;21.60;26.24;98631.06;5055600;28;932;-82
2023/03/01 10:38:24;;;;;;;;;;;;;;;21.57;26.10;98627.06;5022201;28;1963;-82
2023/03/01 10:41:01;;;;;;;;;;;;;;;22.18;25.75;98626.03;5038460;28;987;-82
2023/03/01 10:43:27;;;;;;;;;;;;;;;22.30;25.45;98628.22;4995393;28;1379;-82
2023/03/01 10:45:52;;;;;;;;;;;;;;;22.09;25.65;98617.25;4998481;28;955;-81
2023/03/01 10:48:24;;;;;;;;;;;;;;;21.68;26.45;98621.22;5017738;28;1079;-82
2023/03/01 10:50:50;;;;;;;;;;;;;;;21.73;25.87;98617.09;5018228;28;1301;-81
2023/03/01 10:53:20;;;;;;;;;;;;;;;21.58;26.49;98617.34;5018557;28;874;-81
2023/03/01 10:55:46;;;;;;;;;;;;;;;22.37;25.44;98615.94;5018226;28;1248;-81
2023/03/01 10:58:14;;;;;;;;;;;;;;;22.07;26.04;98614.03;5017925;28;1963;-81
2023/03/01 11:00:51;;;;;;;;;;;;;;;22.00;25.57;98611.34;5034288;28;822;-82
2023/03/01 11:03:21;;;;;;;;;;;;;;;21.64;26.23;98609.16;5001903;28;989;-81
2023/03/01 11:06:07;;;;;;;;;;;;;;;21.61;26.50;98593.03;5018230;28;943;-82
2023/03/01 11:08:39;;;;;;;;;;;;;;;22.29;25.55;98603.16;4978665;28;1165;-81
2023/03/01 11:11:18;;;;;;;;;;;;;;;22.21;25.88;98602.47;4995406;28;945;-81
2023/03/01 11:13:50;;;;;;;;;;;;;;;21.79;25.90;98593.50;4972142;28;1049;-81
2023/03/01 11:16:16;;;;;;;;;;;;;;;21.75;26.05;98587.09;5017963;28;956;-82
2023/03/01 11:18:41;;;;;;;;;;;;;;;21.76;26.03;98594.41;5017753;28;1973;-81
2023/03/01 11:21:08;;;;;;;;;;;;;;;22.21;25.94;98602.47;5017704;28;888;-81
2023/03/01 11:23:34;;;;;;;;;;;;;;;22.27;25.68;98589.38;5018041;28;1059;-82
2023/03/01 11:26:00;;;;;;;;;;;;;;;21.88;25.82;98583.66;5001217;28;874;-81
2023/03/01 11:28:25;;;;;;;;;;;;;;;21.72;26.04;98571.00;5017294;28;921;-81
2023/03/01 11:30:54;;;;;;;;;;;;;;;21.68;26.17;98564.59;5017235;28;1166;-81
2023/03/01 11:33:34;;;;;;;;;;;;;;;21.71;26.23;98558.06;5050250;28;1182;-81
2023/03/01 11:36:23;;;;;;;;;;;;;;;22.19;25.50;98551.09;5051125;28;1138;-81
2023/03/01 11:38:49;;;;;;;;;;;;;;;22.41;25.24;98542.16;5034012;28;1163;-81
2023/03/01 11:41:18;;;;;;;;;;;;;;;22.00;25.96;98552.66;5017457;28;963;-81
2023/03/01 11:44:01;;;;;;;;;;;;;;;21.70;26.19;98544.31;5017322;28;1017;-81
2023/03/01 11:46:32;;;;;;;;;;;;;;;22.05;25.68;98537.97;5030479;28;929;-81
2023/03/01 11:49:10;;;;;;;;;;;;;;;22.18;25.71;98543.84;5033748;28;1063;-81
2023/03/01 11:51:38;;;;;;;;;;;;;;;22.21;25.25;98550.66;5034002;28;916;-81
2023/03/01 11:54:14;;;;;;;;;;;;;;;21.49;25.95;98503.03;5034169;28;801;-81
2023/03/01 11:57:00;;;;;;;;;;;;;;;21.60;26.31;98548.94;5001232;28;1989;-82
2023/03/01 11:59:31;;;;;;;;;;;;;;;21.66;26.50;98540.75;4994572;28;1003;-81
2023/03/01 12:02:07;;;;;;;;;;;;;;;22.28;25.55;98539.97;4994812;28;1081;-82
2023/03/01 12:04:52;;;;;;;;;;;;;;;22.25;25.39;98540.84;4994602;28;1127;-82
2023/03/01 12:07:18;;;;;;;;;;;;;;;21.92;25.78;98539.06;4994228;28;1326;-82
2023/03/01 12:09:59;;;;;;;;;;;;;;;21.64;26.46;98532.69;4994531;28;1057;-83
2023/03/01 12:12:38;;;;;;;;;;;;;;;21.85;26.03;98523.78;4995700;28;959;-83
2023/03/01 12:15:22;;;;;;;;;;;;;;;22.00;25.70;98523.50;4982323;28;944;-82
2023/03/01 12:18:06;;;;;;;;;;;;;;;22.16;25.51;98523.63;5030823;28;1913;-82
2023/03/01 12:20:33;;;;;;;;;;;;;;;21.76;25.96;98529.25;5038251;28;844;-82
2023/03/01 12:22:59;;;;;;;;;;;;;;;21.86;25.96;98527.41;5037724;28;937;-82
2023/03/01 12:25:24;;;;;;;;;;;;;;;21.62;26.33;98525.88;5021652;28;1186;-82
2023/03/01 12:28:00;;;;;;;;;;;;;;;22.16;25.90;98515.09;5038061;28;967;-81
2023/03/01 12:30:44;;;;;;;;;;;;;;;22.10;25.72;98516.84;4981831;28;1323;-82
2023/03/01 12:33:14;;;;;;;;;;;;;;;21.81;25.83;98523.06;4981974;28;859;-82
2023/03/01 12:35:49;;;;;;;;;;;;;;;21.71;26.03;98529.75;4965727;28;970;-82
2023/03/01 12:38:14;;;;;;;;;;;;;;;21.63;26.33;98516.94;4997819;28;1914;-83
2023/03/01 12:40:46;;;;;;;;;;;;;;;22.02;25.62;98521.03;4997906;28;957;-83
2023/03/01 12:43:17;;;;;;;;;;;;;;;22.31;25.35;98524.13;4965620;28;1257;-82
2023/03/01 12:45:42;;;;;;;;;;;;;;;22.42;25.21;98515.38;4985005;28;1120;-83
2023/03/01 12:48:11;;;;;;;;;;;;;;;21.90;25.63;98518.84;5004270;28;1259;-83
2023/03/01 12:50:39;;;;;;;;;;;;;;;21.88;25.54;98507.97;5021393;28;970;-81
2023/03/01 12:53:04;;;;;;;;;;;;;;;21.70;26.17;98510.34;5020792;28;873;-80
2023/03/01 12:55:34;;;;;;;;;;;;;;;22.19;25.52;98502.91;5004183;28;1343;-80
2023/03/01 12:58:02;;;;;;;;;;;;;;;22.33;25.13;98501.81;5020174;28;1914;-81
2023/03/01 13:00:28;;;;;;;;;;;;;;;22.29;25.41;98501.09;5019901;28;1681;-81
2023/03/01 13:02:59;;;;;;;;;;;;;;;22.02;25.57;98504.84;5063314;28;1655;-81
2023/03/01 13:05:26;;;;;;;;;;;;;;;21.67;26.03;98514.06;5079946;28;1778;-81
2023/03/01 13:08:11;;;;;;;;;;;;;;;21.72;25.97;98514.34;5080271;28;1211;-82
2023/03/01 13:10:40;;;;;;;;;;;;;;;21.94;25.87;98513.94;5063676;28;1257;-82